Terminal Aerodrome Forecast
Issued by NWS

Home | Current Version | Previous Version | Text Only | Print | Product List | Glossary On
Versions: 1 2 3 4 5 6 7 8 9 10 11 12 13 14 15 16 17 18 19 20 21 22 23 24 25 26 27
000
FTUS43 KDTX 250536
TAFYIP
TAF
KYIP 250536Z 2506/2606 15006KT P6SM SCT080 BKN250
     FM251000 19011G18KT P6SM SCT080 BKN200
     FM251400 20016G24KT P6SM SCT045 BKN150
     FM251700 22020G28KT P6SM BKN045 BKN100 PROB30 2517/2520 6SM
      SHRA OVC040
     FM252300 21012G18KT P6SM SCT060 BKN200=

USA.gov is the U.S. government's official web portal to all federal, state and local government web resources and services.